Share

Kotzebue, AK

1:57 AM AKDT on April 23, 2014 (GMT -0800)
Wien Memorial (PAOT) Elev 16 ft | 66.88 °N, 162.60 °W | Change Station

Current weather conditions updated 4 minutes ago

Partly Cloudy
Partly Cloudy
34 °F
Feels Like 28 °F
N
7
Wind Variable Wind from NE
Sunrise 6:31 AM
Sunset 11:08 PM
Moon Last Quarter

Today is forecast to be Cooler than yesterday.

Pressure 29.86 in
Visibility 10.0 miles
Clouds Few 12000 ft
Windchill 28 °F
Dew Point 31 °F
Humidity 89%
Rainfall 0.00 in
Snow Depth Not available.
UV 0 out of 16
Pollen Not available.
Air Quality Not available.
Flu Activity Sporadic
METAR PAOT 230953Z 05006KT 10SM FEW120 01/M01 A2986 RMK AO2 SLP111 T00111006

More Conditions Fewer Conditions

Pressure 29.86 in
Visibility 10.0 miles
Clouds Few 12000 ft
Windchill 28 °F
Dew Point 31 °F
Humidity 89%
Rainfall 0.00 in
Snow Depth Not available.
UV 0 out of 16
Pollen Not available.
Air Quality Not available.
Flu Activity Sporadic
METAR PAOT 230953Z 05006KT 10SM FEW120 01/M01 A2986 RMK AO2 SLP111 T00111006

More Conditions Fewer Conditions

10-Day Weather Forecast

Almanac

Astronomy

Apr. 23, 2014 Rise Set
Actual Time 6:31 AM AKDT 11:08 PM AKDT
Civil Twilight 5:17 AM AKDT 12:24 AM AKDT
Nautical Twilight 3:21 AM AKDT 2:16 AM AKDT
Astronomical Twilight Sun does not rise Sun does not rise
Moon 5:47 AM AKDT 3:02 PM AKDT
Length of Visible Light 19h 07m
Length of Day
16h 36m
Tomorrow will be 7m 57s longer.
Last Quarter, 38% of the Moon is Illuminated
Today
Last Quarter
Apr 29
New
May 6
First Quarter
May 14
Full
May 21
Last Quarter

Today's Extremes

State Highs State Lows

Community

  • April Sunset
    April Sunset
  • Waiting..
    Waiting..
  • Sunset...
    Sunset...
  • Happy outdoor day
    Happy outdoor day
  • mystic afternoon....
    mystic afternoon....

WunderPhotos

Upload Photos

1,704,235 photos uploaded!

WunderBlogs® & News

By Dr. Jeff Masters
Director of Meteorology, Weather Underground
By Kari Strenfel
Meteorologist, Weather Underground
By Christopher C. Burt
Weather Historian, Weather Underground
April 23, 2014
April 22, 2014
April 22, 2014

Nearby

Snow Depth

Station Depth Elevation
Rocky Point 1 in 500 ft
Gobblers Knob 7 in 2030 ft
Coldfoot 21 in 1040 ft
Atigun Pass 37 in 4800 ft
Imnaviat Creek 27 in 3050 ft

Coastal Water Temperatures

Place Temperature
No Stations Reporting

Earthquake Activity

City Distance Mag. Time & Date
No recent earthquake activity has been reported nearby.
Minimum magnitude displayed is 2.5.

Nearby Weather Stations

There are no personal weather stations in this area.

What do you think?

We're not finished. Please let us know what you like, what you don't like, and what you are still missing.